sensor_id;sensor_type;location;lat;lon;timestamp;pressure;altitude;pressure_sealevel;temperature
67822;BMP180;54434;50.096;20.082;2023-12-22T00:10:20;95749.60;;;5.10
67822;BMP180;54434;50.096;20.082;2023-12-22T00:12:58;95751.20;;;5.10
67822;BMP180;54434;50.096;20.082;2023-12-22T00:15:35;95763.00;;;5.20
67822;BMP180;54434;50.096;20.082;2023-12-22T00:18:12;95774.20;;;5.20
67822;BMP180;54434;50.096;20.082;2023-12-22T00:20:48;95772.00;;;5.20
67822;BMP180;54434;50.096;20.082;2023-12-22T00:23:24;95775.20;;;5.28
67822;BMP180;54434;50.096;20.082;2023-12-22T00:26:01;95780.80;;;5.24
67822;BMP180;54434;50.096;20.082;2023-12-22T00:28:37;95783.60;;;5.22
67822;BMP180;54434;50.096;20.082;2023-12-22T00:31:13;95777.00;;;5.20
67822;BMP180;54434;50.096;20.082;2023-12-22T00:33:50;95772.60;;;5.20
67822;BMP180;54434;50.096;20.082;2023-12-22T00:36:26;95774.40;;;5.20
67822;BMP180;54434;50.096;20.082;2023-12-22T00:39:02;95774.60;;;5.20
67822;BMP180;54434;50.096;20.082;2023-12-22T00:41:39;95780.00;;;5.10
67822;BMP180;54434;50.096;20.082;2023-12-22T00:44:16;95777.80;;;5.10
67822;BMP180;54434;50.096;20.082;2023-12-22T00:46:53;95785.00;;;5.10
67822;BMP180;54434;50.096;20.082;2023-12-22T00:49:29;95768.00;;;5.02
67822;BMP180;54434;50.096;20.082;2023-12-22T00:52:07;95776.00;;;5.00
67822;BMP180;54434;50.096;20.082;2023-12-22T00:54:43;95788.60;;;5.00
67822;BMP180;54434;50.096;20.082;2023-12-22T00:57:20;95802.20;;;5.00
67822;BMP180;54434;50.096;20.082;2023-12-22T00:59:56;95800.60;;;5.00
67822;BMP180;54434;50.096;20.082;2023-12-22T01:02:34;95797.60;;;5.00
67822;BMP180;54434;50.096;20.082;2023-12-22T01:05:11;95784.60;;;5.00
67822;BMP180;54434;50.096;20.082;2023-12-22T01:07:48;95779.00;;;4.96
67822;BMP180;54434;50.096;20.082;2023-12-22T01:10:25;95783.40;;;4.90
67822;BMP180;54434;50.096;20.082;2023-12-22T01:13:02;95789.80;;;4.90
67822;BMP180;54434;50.096;20.082;2023-12-22T01:15:38;95792.80;;;4.80
67822;BMP180;54434;50.096;20.082;2023-12-22T01:18:15;95797.60;;;4.80
67822;BMP180;54434;50.096;20.082;2023-12-22T01:20:51;95802.80;;;4.70
67822;BMP180;54434;50.096;20.082;2023-12-22T01:23:27;95801.60;;;4.70
67822;BMP180;54434;50.096;20.082;2023-12-22T01:26:04;95806.80;;;4.60
67822;BMP180;54434;50.096;20.082;2023-12-22T01:28:40;95804.00;;;4.50
67822;BMP180;54434;50.096;20.082;2023-12-22T01:31:17;95811.80;;;4.50
67822;BMP180;54434;50.096;20.082;2023-12-22T01:33:53;95805.00;;;4.40
67822;BMP180;54434;50.096;20.082;2023-12-22T01:36:30;95810.20;;;4.36
67822;BMP180;54434;50.096;20.082;2023-12-22T01:39:06;95814.80;;;4.30
67822;BMP180;54434;50.096;20.082;2023-12-22T01:41:43;95821.00;;;4.30
67822;BMP180;54434;50.096;20.082;2023-12-22T01:44:20;95821.80;;;4.20
67822;BMP180;54434;50.096;20.082;2023-12-22T01:46:56;95826.60;;;4.20
67822;BMP180;54434;50.096;20.082;2023-12-22T01:49:33;95831.00;;;4.20
67822;BMP180;54434;50.096;20.082;2023-12-22T01:52:11;95831.40;;;4.20
67822;BMP180;54434;50.096;20.082;2023-12-22T01:54:47;95839.20;;;4.14
67822;BMP180;54434;50.096;20.082;2023-12-22T01:57:25;95838.80;;;4.10
67822;BMP180;54434;50.096;20.082;2023-12-22T02:00:02;95834.80;;;4.10
67822;BMP180;54434;50.096;20.082;2023-12-22T02:02:46;95845.40;;;4.00
67822;BMP180;54434;50.096;20.082;2023-12-22T02:05:23;95845.60;;;4.00
67822;BMP180;54434;50.096;20.082;2023-12-22T02:08:00;95843.60;;;3.90
67822;BMP180;54434;50.096;20.082;2023-12-22T02:10:37;95837.00;;;3.90
67822;BMP180;54434;50.096;20.082;2023-12-22T02:13:14;95843.40;;;3.90
67822;BMP180;54434;50.096;20.082;2023-12-22T02:15:59;95845.60;;;3.80
67822;BMP180;54434;50.096;20.082;2023-12-22T02:18:40;95841.60;;;3.80
67822;BMP180;54434;50.096;20.082;2023-12-22T02:21:18;95844.80;;;3.80
67822;BMP180;54434;50.096;20.082;2023-12-22T02:23:54;95846.60;;;3.80
67822;BMP180;54434;50.096;20.082;2023-12-22T02:26:44;95843.80;;;3.80
67822;BMP180;54434;50.096;20.082;2023-12-22T02:29:22;95848.20;;;3.80
67822;BMP180;54434;50.096;20.082;2023-12-22T02:32:06;95839.60;;;3.90
67822;BMP180;54434;50.096;20.082;2023-12-22T02:34:46;95839.40;;;3.90
67822;BMP180;54434;50.096;20.082;2023-12-22T02:37:27;95833.60;;;4.00
67822;BMP180;54434;50.096;20.082;2023-12-22T02:40:07;95839.40;;;4.00
67822;BMP180;54434;50.096;20.082;2023-12-22T02:42:45;95842.00;;;4.00
67822;BMP180;54434;50.096;20.082;2023-12-22T02:45:23;95840.20;;;4.00
67822;BMP180;54434;50.096;20.082;2023-12-22T02:47:59;95828.00;;;4.00
67822;BMP180;54434;50.096;20.082;2023-12-22T02:50:36;95829.00;;;4.00
67822;BMP180;54434;50.096;20.082;2023-12-22T02:53:12;95835.40;;;4.00
67822;BMP180;54434;50.096;20.082;2023-12-22T02:55:49;95838.80;;;4.00
67822;BMP180;54434;50.096;20.082;2023-12-22T02:58:25;95831.80;;;4.00
67822;BMP180;54434;50.096;20.082;2023-12-22T03:01:02;95836.80;;;3.90
67822;BMP180;54434;50.096;20.082;2023-12-22T03:03:39;95843.40;;;3.90
67822;BMP180;54434;50.096;20.082;2023-12-22T03:06:15;95839.60;;;3.90
67822;BMP180;54434;50.096;20.082;2023-12-22T03:08:52;95848.60;;;3.90
67822;BMP180;54434;50.096;20.082;2023-12-22T03:11:28;95843.00;;;3.90
67822;BMP180;54434;50.096;20.082;2023-12-22T03:14:04;95836.20;;;3.90
67822;BMP180;54434;50.096;20.082;2023-12-22T03:16:41;95836.20;;;3.90
67822;BMP180;54434;50.096;20.082;2023-12-22T03:19:17;95832.80;;;3.90
67822;BMP180;54434;50.096;20.082;2023-12-22T03:21:54;95831.00;;;3.82
67822;BMP180;54434;50.096;20.082;2023-12-22T03:24:31;95834.00;;;3.80
67822;BMP180;54434;50.096;20.082;2023-12-22T03:27:08;95841.60;;;3.80
67822;BMP180;54434;50.096;20.082;2023-12-22T03:29:45;95841.60;;;3.80
67822;BMP180;54434;50.096;20.082;2023-12-22T03:32:21;95844.80;;;3.80
67822;BMP180;54434;50.096;20.082;2023-12-22T03:34:58;95859.60;;;3.80
67822;BMP180;54434;50.096;20.082;2023-12-22T03:37:34;95875.20;;;3.74
67822;BMP180;54434;50.096;20.082;2023-12-22T03:40:13;95874.20;;;3.70
67822;BMP180;54434;50.096;20.082;2023-12-22T03:42:50;95867.00;;;3.70
67822;BMP180;54434;50.096;20.082;2023-12-22T03:45:26;95863.80;;;3.70
67822;BMP180;54434;50.096;20.082;2023-12-22T03:48:04;95861.00;;;3.70
67822;BMP180;54434;50.096;20.082;2023-12-22T03:50:41;95864.20;;;3.72
67822;BMP180;54434;50.096;20.082;2023-12-22T03:53:17;95866.20;;;3.70
67822;BMP180;54434;50.096;20.082;2023-12-22T03:55:54;95857.20;;;3.70
67822;BMP180;54434;50.096;20.082;2023-12-22T03:58:31;95855.60;;;3.70
67822;BMP180;54434;50.096;20.082;2023-12-22T04:01:07;95859.80;;;3.70
67822;BMP180;54434;50.096;20.082;2023-12-22T04:03:45;95865.60;;;3.70
67822;BMP180;54434;50.096;20.082;2023-12-22T04:06:21;95862.20;;;3.70
67822;BMP180;54434;50.096;20.082;2023-12-22T04:08:57;95864.00;;;3.70
67822;BMP180;54434;50.096;20.082;2023-12-22T04:11:33;95857.20;;;3.70
67822;BMP180;54434;50.096;20.082;2023-12-22T04:14:14;95872.20;;;3.70
67822;BMP180;54434;50.096;20.082;2023-12-22T04:16:51;95858.00;;;3.70
67822;BMP180;54434;50.096;20.082;2023-12-22T04:19:28;95864.20;;;3.76
67822;BMP180;54434;50.096;20.082;2023-12-22T04:22:05;95881.00;;;3.78
67822;BMP180;54434;50.096;20.082;2023-12-22T04:24:41;95865.40;;;3.78
67822;BMP180;54434;50.096;20.082;2023-12-22T04:27:17;95870.20;;;3.80
67822;BMP180;54434;50.096;20.082;2023-12-22T04:29:54;95876.60;;;3.80
67822;BMP180;54434;50.096;20.082;2023-12-22T04:32:30;95877.40;;;3.72
67822;BMP180;54434;50.096;20.082;2023-12-22T04:35:08;95885.80;;;3.70
67822;BMP180;54434;50.096;20.082;2023-12-22T04:37:44;95895.00;;;3.70
67822;BMP180;54434;50.096;20.082;2023-12-22T04:40:21;95892.20;;;3.70
67822;BMP180;54434;50.096;20.082;2023-12-22T04:42:58;95897.60;;;3.70
67822;BMP180;54434;50.096;20.082;2023-12-22T04:45:34;95890.80;;;3.70
67822;BMP180;54434;50.096;20.082;2023-12-22T04:48:11;95875.60;;;3.64
67822;BMP180;54434;50.096;20.082;2023-12-22T04:50:48;95883.60;;;3.60
67822;BMP180;54434;50.096;20.082;2023-12-22T04:53:24;95891.60;;;3.60
67822;BMP180;54434;50.096;20.082;2023-12-22T04:56:01;95881.40;;;3.60
67822;BMP180;54434;50.096;20.082;2023-12-22T04:58:37;95876.60;;;3.60
67822;BMP180;54434;50.096;20.082;2023-12-22T05:01:13;95876.00;;;3.60
67822;BMP180;54434;50.096;20.082;2023-12-22T05:03:50;95871.00;;;3.60
67822;BMP180;54434;50.096;20.082;2023-12-22T05:06:26;95861.20;;;3.62
67822;BMP180;54434;50.096;20.082;2023-12-22T05:09:04;95867.60;;;3.64
67822;BMP180;54434;50.096;20.082;2023-12-22T05:11:40;95877.40;;;3.70
67822;BMP180;54434;50.096;20.082;2023-12-22T05:14:17;95882.20;;;3.70
67822;BMP180;54434;50.096;20.082;2023-12-22T05:16:53;95889.00;;;3.70
67822;BMP180;54434;50.096;20.082;2023-12-22T05:19:30;95882.20;;;3.70
67822;BMP180;54434;50.096;20.082;2023-12-22T05:22:07;95899.80;;;3.70
67822;BMP180;54434;50.096;20.082;2023-12-22T05:24:43;95925.60;;;3.68
67822;BMP180;54434;50.096;20.082;2023-12-22T05:27:20;95943.20;;;3.54
67822;BMP180;54434;50.096;20.082;2023-12-22T05:29:56;95964.80;;;3.40
67822;BMP180;54434;50.096;20.082;2023-12-22T05:32:36;95992.00;;;3.10
67822;BMP180;54434;50.096;20.082;2023-12-22T05:35:14;95991.20;;;2.60
67822;BMP180;54434;50.096;20.082;2023-12-22T05:37:50;95980.80;;;2.26
67822;BMP180;54434;50.096;20.082;2023-12-22T05:40:27;95988.00;;;2.00
67822;BMP180;54434;50.096;20.082;2023-12-22T05:43:04;95990.40;;;1.80
67822;BMP180;54434;50.096;20.082;2023-12-22T05:45:41;95992.00;;;1.60
67822;BMP180;54434;50.096;20.082;2023-12-22T05:48:22;95990.20;;;1.40
67822;BMP180;54434;50.096;20.082;2023-12-22T05:51:00;95995.00;;;1.30
67822;BMP180;54434;50.096;20.082;2023-12-22T05:53:38;96007.00;;;1.20
67822;BMP180;54434;50.096;20.082;2023-12-22T05:56:23;96010.80;;;1.10
67822;BMP180;54434;50.096;20.082;2023-12-22T05:58:59;96016.00;;;1.10
67822;BMP180;54434;50.096;20.082;2023-12-22T06:01:36;96026.00;;;1.00
67822;BMP180;54434;50.096;20.082;2023-12-22T06:04:12;96021.00;;;1.00
67822;BMP180;54434;50.096;20.082;2023-12-22T06:06:49;96005.60;;;0.90
67822;BMP180;54434;50.096;20.082;2023-12-22T06:09:25;96007.80;;;0.90
67822;BMP180;54434;50.096;20.082;2023-12-22T06:12:02;96000.80;;;0.86
67822;BMP180;54434;50.096;20.082;2023-12-22T06:14:40;96008.40;;;0.80
67822;BMP180;54434;50.096;20.082;2023-12-22T06:17:16;96007.40;;;0.80
67822;BMP180;54434;50.096;20.082;2023-12-22T06:19:52;96027.60;;;0.80
67822;BMP180;54434;50.096;20.082;2023-12-22T06:22:29;96032.80;;;0.70
67822;BMP180;54434;50.096;20.082;2023-12-22T06:25:07;96039.80;;;0.70
67822;BMP180;54434;50.096;20.082;2023-12-22T06:27:46;96042.80;;;0.70
67822;BMP180;54434;50.096;20.082;2023-12-22T06:30:23;96046.00;;;0.60
67822;BMP180;54434;50.096;20.082;2023-12-22T06:32:59;96058.00;;;0.60
67822;BMP180;54434;50.096;20.082;2023-12-22T06:35:36;96050.20;;;0.60
67822;BMP180;54434;50.096;20.082;2023-12-22T06:38:13;96057.60;;;0.70
67822;BMP180;54434;50.096;20.082;2023-12-22T06:40:50;96063.20;;;0.70
67822;BMP180;54434;50.096;20.082;2023-12-22T06:43:26;96079.60;;;0.70
67822;BMP180;54434;50.096;20.082;2023-12-22T06:46:03;96073.40;;;0.80
67822;BMP180;54434;50.096;20.082;2023-12-22T06:48:39;96079.20;;;0.80
67822;BMP180;54434;50.096;20.082;2023-12-22T06:51:25;96086.60;;;0.80
67822;BMP180;54434;50.096;20.082;2023-12-22T06:54:03;96091.20;;;0.90
67822;BMP180;54434;50.096;20.082;2023-12-22T06:56:41;96095.80;;;0.90
67822;BMP180;54434;50.096;20.082;2023-12-22T06:59:17;96102.40;;;0.96
67822;BMP180;54434;50.096;20.082;2023-12-22T07:01:56;96094.40;;;1.00
67822;BMP180;54434;50.096;20.082;2023-12-22T07:05:36;96102.40;;;1.00
67822;BMP180;54434;50.096;20.082;2023-12-22T07:08:13;96104.20;;;1.00
67822;BMP180;54434;50.096;20.082;2023-12-22T07:10:49;96101.20;;;1.02
67822;BMP180;54434;50.096;20.082;2023-12-22T07:13:26;96104.80;;;1.00
67822;BMP180;54434;50.096;20.082;2023-12-22T07:16:05;96101.80;;;1.00
67822;BMP180;54434;50.096;20.082;2023-12-22T07:18:43;96103.20;;;1.00
67822;BMP180;54434;50.096;20.082;2023-12-22T07:21:22;96099.60;;;1.02
67822;BMP180;54434;50.096;20.082;2023-12-22T07:23:58;96094.40;;;1.06
67822;BMP180;54434;50.096;20.082;2023-12-22T07:26:35;96098.20;;;1.10
67822;BMP180;54434;50.096;20.082;2023-12-22T07:29:12;96104.40;;;1.08
67822;BMP180;54434;50.096;20.082;2023-12-22T07:31:49;96113.40;;;1.10
67822;BMP180;54434;50.096;20.082;2023-12-22T07:34:25;96112.80;;;1.12
67822;BMP180;54434;50.096;20.082;2023-12-22T07:37:03;96119.60;;;1.20
67822;BMP180;54434;50.096;20.082;2023-12-22T07:39:43;96118.00;;;1.20
67822;BMP180;54434;50.096;20.082;2023-12-22T07:42:20;96121.60;;;1.20
67822;BMP180;54434;50.096;20.082;2023-12-22T07:44:56;96125.60;;;1.20
67822;BMP180;54434;50.096;20.082;2023-12-22T07:47:33;96127.60;;;1.22
67822;BMP180;54434;50.096;20.082;2023-12-22T07:50:13;96126.40;;;1.30
67822;BMP180;54434;50.096;20.082;2023-12-22T07:52:49;96136.80;;;1.30
67822;BMP180;54434;50.096;20.082;2023-12-22T07:55:26;96138.60;;;1.40
67822;BMP180;54434;50.096;20.082;2023-12-22T07:58:03;96142.00;;;1.50
67822;BMP180;54434;50.096;20.082;2023-12-22T08:00:39;96139.60;;;1.50
67822;BMP180;54434;50.096;20.082;2023-12-22T08:03:16;96141.40;;;1.60
67822;BMP180;54434;50.096;20.082;2023-12-22T08:05:53;96144.40;;;1.70
67822;BMP180;54434;50.096;20.082;2023-12-22T08:08:31;96148.80;;;1.80
67822;BMP180;54434;50.096;20.082;2023-12-22T08:11:08;96147.60;;;1.80
67822;BMP180;54434;50.096;20.082;2023-12-22T08:13:45;96139.60;;;1.90
67822;BMP180;54434;50.096;20.082;2023-12-22T08:16:21;96139.20;;;1.92
67822;BMP180;54434;50.096;20.082;2023-12-22T08:18:57;96130.00;;;2.00
67822;BMP180;54434;50.096;20.082;2023-12-22T08:21:35;96129.20;;;2.00
67822;BMP180;54434;50.096;20.082;2023-12-22T08:24:19;96125.40;;;2.00
67822;BMP180;54434;50.096;20.082;2023-12-22T08:26:57;96119.80;;;2.10
67822;BMP180;54434;50.096;20.082;2023-12-22T08:29:34;96122.60;;;2.20
67822;BMP180;54434;50.096;20.082;2023-12-22T08:32:11;96129.20;;;2.34
67822;BMP180;54434;50.096;20.082;2023-12-22T08:34:47;96139.80;;;2.48
67822;BMP180;54434;50.096;20.082;2023-12-22T08:37:25;96138.40;;;2.58
67822;BMP180;54434;50.096;20.082;2023-12-22T08:40:02;96136.80;;;2.60
67822;BMP180;54434;50.096;20.082;2023-12-22T08:42:38;96134.80;;;2.70
67822;BMP180;54434;50.096;20.082;2023-12-22T08:45:15;96138.60;;;2.70
67822;BMP180;54434;50.096;20.082;2023-12-22T08:47:51;96138.80;;;2.80
67822;BMP180;54434;50.096;20.082;2023-12-22T08:50:28;96146.80;;;2.86
67822;BMP180;54434;50.096;20.082;2023-12-22T08:53:04;96137.60;;;2.98
67822;BMP180;54434;50.096;20.082;2023-12-22T08:55:41;96127.80;;;3.00
67822;BMP180;54434;50.096;20.082;2023-12-22T08:58:17;96131.60;;;3.00
67822;BMP180;54434;50.096;20.082;2023-12-22T09:00:54;96132.40;;;3.00
67822;BMP180;54434;50.096;20.082;2023-12-22T09:03:32;96130.40;;;3.06
67822;BMP180;54434;50.096;20.082;2023-12-22T09:06:11;96129.20;;;3.10
67822;BMP180;54434;50.096;20.082;2023-12-22T09:08:48;96118.40;;;3.10
67822;BMP180;54434;50.096;20.082;2023-12-22T09:11:27;96119.80;;;3.12
67822;BMP180;54434;50.096;20.082;2023-12-22T09:14:03;96122.40;;;3.20
67822;BMP180;54434;50.096;20.082;2023-12-22T09:16:41;96126.00;;;3.20
67822;BMP180;54434;50.096;20.082;2023-12-22T09:19:19;96122.20;;;3.20
67822;BMP180;54434;50.096;20.082;2023-12-22T09:21:57;96116.80;;;3.20
67822;BMP180;54434;50.096;20.082;2023-12-22T09:24:33;96120.00;;;3.10
67822;BMP180;54434;50.096;20.082;2023-12-22T09:27:10;96133.80;;;3.10
67822;BMP180;54434;50.096;20.082;2023-12-22T09:29:47;96148.40;;;3.00
67822;BMP180;54434;50.096;20.082;2023-12-22T09:32:23;96150.20;;;2.80
67822;BMP180;54434;50.096;20.082;2023-12-22T09:35:00;96139.20;;;2.60
67822;BMP180;54434;50.096;20.082;2023-12-22T09:37:36;96134.60;;;2.40
67822;BMP180;54434;50.096;20.082;2023-12-22T09:40:15;96132.00;;;2.20
67822;BMP180;54434;50.096;20.082;2023-12-22T09:42:55;96123.00;;;2.20
67822;BMP180;54434;50.096;20.082;2023-12-22T09:45:35;96128.80;;;2.10
67822;BMP180;54434;50.096;20.082;2023-12-22T09:48:14;96127.80;;;2.10
67822;BMP180;54434;50.096;20.082;2023-12-22T09:50:52;96125.60;;;2.10
67822;BMP180;54434;50.096;20.082;2023-12-22T09:53:30;96119.80;;;2.10
67822;BMP180;54434;50.096;20.082;2023-12-22T09:56:08;96108.80;;;2.18
67822;BMP180;54434;50.096;20.082;2023-12-22T09:58:46;96103.00;;;2.20
67822;BMP180;54434;50.096;20.082;2023-12-22T10:01:25;96100.00;;;2.40
67822;BMP180;54434;50.096;20.082;2023-12-22T10:04:02;96096.40;;;2.50
67822;BMP180;54434;50.096;20.082;2023-12-22T10:06:39;96088.20;;;2.60
67822;BMP180;54434;50.096;20.082;2023-12-22T10:09:16;96082.60;;;2.80
67822;BMP180;54434;50.096;20.082;2023-12-22T10:11:55;96087.40;;;2.90
67822;BMP180;54434;50.096;20.082;2023-12-22T10:14:33;96082.20;;;2.90
67822;BMP180;54434;50.096;20.082;2023-12-22T10:17:16;96091.20;;;2.82
67822;BMP180;54434;50.096;20.082;2023-12-22T10:19:52;96093.00;;;2.80
67822;BMP180;54434;50.096;20.082;2023-12-22T10:22:29;96097.60;;;2.70
67822;BMP180;54434;50.096;20.082;2023-12-22T10:25:07;96097.20;;;2.70
67822;BMP180;54434;50.096;20.082;2023-12-22T10:27:46;96091.00;;;2.60
67822;BMP180;54434;50.096;20.082;2023-12-22T10:30:24;96090.00;;;2.60
67822;BMP180;54434;50.096;20.082;2023-12-22T10:33:05;96092.40;;;2.56
67822;BMP180;54434;50.096;20.082;2023-12-22T10:35:44;96095.00;;;2.50
67822;BMP180;54434;50.096;20.082;2023-12-22T10:38:22;96093.40;;;2.50
67822;BMP180;54434;50.096;20.082;2023-12-22T10:40:59;96090.80;;;2.50
67822;BMP180;54434;50.096;20.082;2023-12-22T10:43:41;96087.60;;;2.50
67822;BMP180;54434;50.096;20.082;2023-12-22T10:46:16;96098.00;;;2.48
67822;BMP180;54434;50.096;20.082;2023-12-22T10:48:55;96102.00;;;2.46
67822;BMP180;54434;50.096;20.082;2023-12-22T10:51:34;96094.80;;;2.50
67822;BMP180;54434;50.096;20.082;2023-12-22T10:54:12;96082.60;;;2.60
67822;BMP180;54434;50.096;20.082;2023-12-22T10:56:48;96086.80;;;2.60
67822;BMP180;54434;50.096;20.082;2023-12-22T10:59:28;96082.20;;;2.70
67822;BMP180;54434;50.096;20.082;2023-12-22T11:02:08;96072.40;;;2.80
67822;BMP180;54434;50.096;20.082;2023-12-22T11:04:57;96061.20;;;2.90
67822;BMP180;54434;50.096;20.082;2023-12-22T11:07:37;96073.80;;;3.00
67822;BMP180;54434;50.096;20.082;2023-12-22T11:10:18;96065.60;;;3.10
67822;BMP180;54434;50.096;20.082;2023-12-22T11:12:56;96063.20;;;3.20
67822;BMP180;54434;50.096;20.082;2023-12-22T11:15:34;96054.80;;;3.20
67822;BMP180;54434;50.096;20.082;2023-12-22T11:18:11;96052.40;;;3.22
67822;BMP180;54434;50.096;20.082;2023-12-22T11:20:49;96049.80;;;3.30
67822;BMP180;54434;50.096;20.082;2023-12-22T11:23:27;96046.60;;;3.30
67822;BMP180;54434;50.096;20.082;2023-12-22T11:26:07;96041.00;;;3.30
67822;BMP180;54434;50.096;20.082;2023-12-22T11:28:49;96032.80;;;3.30
67822;BMP180;54434;50.096;20.082;2023-12-22T11:31:30;96047.60;;;3.30
67822;BMP180;54434;50.096;20.082;2023-12-22T11:34:09;96063.60;;;3.20
67822;BMP180;54434;50.096;20.082;2023-12-22T11:36:53;96074.00;;;3.10
67822;BMP180;54434;50.096;20.082;2023-12-22T11:39:30;96078.40;;;3.00
67822;BMP180;54434;50.096;20.082;2023-12-22T11:42:10;96092.20;;;2.80
67822;BMP180;54434;50.096;20.082;2023-12-22T11:44:47;96083.40;;;2.70
67822;BMP180;54434;50.096;20.082;2023-12-22T11:47:27;96083.80;;;2.60
67822;BMP180;54434;50.096;20.082;2023-12-22T11:50:06;96084.60;;;2.50
67822;BMP180;54434;50.096;20.082;2023-12-22T11:52:45;96083.80;;;2.40
67822;BMP180;54434;50.096;20.082;2023-12-22T11:55:59;96085.60;;;2.32
67822;BMP180;54434;50.096;20.082;2023-12-22T11:58:43;96072.60;;;2.30
67822;BMP180;54434;50.096;20.082;2023-12-22T12:01:28;96063.00;;;2.30
67822;BMP180;54434;50.096;20.082;2023-12-22T12:04:07;96042.40;;;2.20
67822;BMP180;54434;50.096;20.082;2023-12-22T12:06:44;96044.60;;;2.20
67822;BMP180;54434;50.096;20.082;2023-12-22T12:09:47;96036.00;;;2.20
67822;BMP180;54434;50.096;20.082;2023-12-22T12:12:26;96041.20;;;2.14
67822;BMP180;54434;50.096;20.082;2023-12-22T12:15:12;96044.80;;;2.10
67822;BMP180;54434;50.096;20.082;2023-12-22T12:17:51;96066.40;;;2.10
67822;BMP180;54434;50.096;20.082;2023-12-22T12:20:28;96061.00;;;2.00
67822;BMP180;54434;50.096;20.082;2023-12-22T12:23:06;96053.80;;;2.00
67822;BMP180;54434;50.096;20.082;2023-12-22T12:25:43;96054.00;;;2.02
67822;BMP180;54434;50.096;20.082;2023-12-22T12:28:26;96055.80;;;2.10
67822;BMP180;54434;50.096;20.082;2023-12-22T12:31:07;96052.00;;;2.10
67822;BMP180;54434;50.096;20.082;2023-12-22T12:33:45;96048.80;;;2.10
67822;BMP180;54434;50.096;20.082;2023-12-22T12:36:24;96053.80;;;2.10
67822;BMP180;54434;50.096;20.082;2023-12-22T12:39:10;96056.20;;;2.08
67822;BMP180;54434;50.096;20.082;2023-12-22T12:41:55;96049.40;;;2.02
67822;BMP180;54434;50.096;20.082;2023-12-22T12:44:33;96057.00;;;2.10
67822;BMP180;54434;50.096;20.082;2023-12-22T12:47:17;96056.40;;;2.10
67822;BMP180;54434;50.096;20.082;2023-12-22T12:50:02;96046.20;;;2.10
67822;BMP180;54434;50.096;20.082;2023-12-22T12:52:40;96041.00;;;2.10
67822;BMP180;54434;50.096;20.082;2023-12-22T12:55:18;96043.60;;;2.10
67822;BMP180;54434;50.096;20.082;2023-12-22T12:57:56;96039.40;;;2.10
67822;BMP180;54434;50.096;20.082;2023-12-22T13:00:33;96027.80;;;2.10
67822;BMP180;54434;50.096;20.082;2023-12-22T13:03:11;96026.40;;;2.10
67822;BMP180;54434;50.096;20.082;2023-12-22T13:05:48;96012.40;;;2.10
67822;BMP180;54434;50.096;20.082;2023-12-22T13:08:24;96009.80;;;2.20
67822;BMP180;54434;50.096;20.082;2023-12-22T13:11:13;95999.80;;;2.20
67822;BMP180;54434;50.096;20.082;2023-12-22T13:13:50;96002.60;;;2.20
67822;BMP180;54434;50.096;20.082;2023-12-22T13:16:28;95993.40;;;2.20
67822;BMP180;54434;50.096;20.082;2023-12-22T13:19:05;95997.60;;;2.20
67822;BMP180;54434;50.096;20.082;2023-12-22T13:21:42;95997.00;;;2.20
67822;BMP180;54434;50.096;20.082;2023-12-22T13:24:20;95988.40;;;2.20
67822;BMP180;54434;50.096;20.082;2023-12-22T13:27:06;95978.20;;;2.20
67822;BMP180;54434;50.096;20.082;2023-12-22T13:29:48;95970.80;;;2.20
67822;BMP180;54434;50.096;20.082;2023-12-22T13:32:27;95975.40;;;2.20
67822;BMP180;54434;50.096;20.082;2023-12-22T13:35:05;95975.60;;;2.20
67822;BMP180;54434;50.096;20.082;2023-12-22T13:37:46;95976.40;;;2.20
67822;BMP180;54434;50.096;20.082;2023-12-22T13:40:24;95982.00;;;2.20
67822;BMP180;54434;50.096;20.082;2023-12-22T13:43:01;95989.40;;;2.20
67822;BMP180;54434;50.096;20.082;2023-12-22T13:45:38;95999.20;;;2.28
67822;BMP180;54434;50.096;20.082;2023-12-22T13:48:17;96011.60;;;2.30
67822;BMP180;54434;50.096;20.082;2023-12-22T13:51:02;96007.80;;;2.30
67822;BMP180;54434;50.096;20.082;2023-12-22T13:53:48;96002.40;;;2.30
67822;BMP180;54434;50.096;20.082;2023-12-22T13:56:24;95998.40;;;2.30
67822;BMP180;54434;50.096;20.082;2023-12-22T13:59:10;96011.00;;;2.36
67822;BMP180;54434;50.096;20.082;2023-12-22T14:01:48;96021.80;;;2.32
67822;BMP180;54434;50.096;20.082;2023-12-22T14:04:24;96011.20;;;2.34
67822;BMP180;54434;50.096;20.082;2023-12-22T14:07:01;96015.60;;;2.36
67822;BMP180;54434;50.096;20.082;2023-12-22T14:09:38;96014.60;;;2.30
67822;BMP180;54434;50.096;20.082;2023-12-22T14:12:14;96026.60;;;2.24
67822;BMP180;54434;50.096;20.082;2023-12-22T14:15:02;96024.40;;;2.20
67822;BMP180;54434;50.096;20.082;2023-12-22T14:17:39;96031.60;;;2.12
67822;BMP180;54434;50.096;20.082;2023-12-22T14:20:18;96020.60;;;2.10
67822;BMP180;54434;50.096;20.082;2023-12-22T14:22:54;96026.20;;;2.10
67822;BMP180;54434;50.096;20.082;2023-12-22T14:25:31;96028.00;;;2.10
67822;BMP180;54434;50.096;20.082;2023-12-22T14:28:09;96023.00;;;2.06
67822;BMP180;54434;50.096;20.082;2023-12-22T14:30:45;96021.40;;;2.00
67822;BMP180;54434;50.096;20.082;2023-12-22T14:33:22;96023.80;;;2.00
67822;BMP180;54434;50.096;20.082;2023-12-22T14:35:58;96018.00;;;2.00
67822;BMP180;54434;50.096;20.082;2023-12-22T14:38:34;96025.40;;;2.00
67822;BMP180;54434;50.096;20.082;2023-12-22T14:41:11;96046.60;;;2.00
67822;BMP180;54434;50.096;20.082;2023-12-22T14:43:47;96041.20;;;1.94
67822;BMP180;54434;50.096;20.082;2023-12-22T14:46:24;96045.80;;;1.94
67822;BMP180;54434;50.096;20.082;2023-12-22T14:49:00;96049.20;;;1.98
67822;BMP180;54434;50.096;20.082;2023-12-22T14:51:41;96045.20;;;1.98
67822;BMP180;54434;50.096;20.082;2023-12-22T14:54:17;96045.80;;;1.98
67822;BMP180;54434;50.096;20.082;2023-12-22T14:56:54;96056.00;;;1.98
67822;BMP180;54434;50.096;20.082;2023-12-22T14:59:30;96054.80;;;2.00
67822;BMP180;54434;50.096;20.082;2023-12-22T15:02:07;96066.80;;;2.00
67822;BMP180;54434;50.096;20.082;2023-12-22T15:04:43;96060.60;;;2.00
67822;BMP180;54434;50.096;20.082;2023-12-22T15:07:21;96054.60;;;2.00
67822;BMP180;54434;50.096;20.082;2023-12-22T15:09:57;96050.60;;;2.00
67822;BMP180;54434;50.096;20.082;2023-12-22T15:12:35;96055.20;;;2.00
67822;BMP180;54434;50.096;20.082;2023-12-22T15:15:13;96060.60;;;2.00
67822;BMP180;54434;50.096;20.082;2023-12-22T15:17:49;96057.60;;;2.00
67822;BMP180;54434;50.096;20.082;2023-12-22T15:20:26;96056.20;;;2.00